createdAt,value
2023-04-15T00:01:19.708Z,95.33
2023-04-15T00:03:48.688Z,95.36
2023-04-15T00:06:17.013Z,95.62
2023-04-15T00:08:45.113Z,95.54
2023-04-15T00:11:13.545Z,95.75
2023-04-15T00:13:43.322Z,95.69
2023-04-15T00:16:11.706Z,95.66
2023-04-15T00:18:39.941Z,95.69
2023-04-15T00:21:08.034Z,95.69
2023-04-15T00:23:36.537Z,96.28
2023-04-15T00:26:04.721Z,96.25
2023-04-15T00:28:33.632Z,96.39
2023-04-15T00:31:03.158Z,96.19
2023-04-15T00:33:31.305Z,96.50
2023-04-15T00:35:59.420Z,96.22
2023-04-15T00:38:28.139Z,96.09
2023-04-15T00:40:56.798Z,96.24
2023-04-15T00:43:26.425Z,96.13
2023-04-15T00:45:55.943Z,96.23
2023-04-15T00:48:26.208Z,96.46
2023-04-15T00:50:54.289Z,96.63
2023-04-15T00:53:22.378Z,96.45
2023-04-15T00:55:51.219Z,96.32
2023-04-15T00:58:19.438Z,96.70
2023-04-15T01:00:47.813Z,96.84
2023-04-15T01:03:16.556Z,97.08
2023-04-15T01:05:46.596Z,96.88
2023-04-15T01:08:14.903Z,97.00
2023-04-15T01:10:43.011Z,97.23
2023-04-15T01:13:11.093Z,97.40
2023-04-15T01:15:39.741Z,97.69
2023-04-15T01:18:08.474Z,97.48
2023-04-15T01:20:36.987Z,97.61
2023-04-15T01:23:07.420Z,97.53
2023-04-15T01:25:37.115Z,97.30
2023-04-15T01:28:05.988Z,97.27
2023-04-15T01:30:35.919Z,97.27
2023-04-15T01:33:04.253Z,97.15
2023-04-15T01:35:32.378Z,97.03
2023-04-15T01:38:04.935Z,97.34
2023-04-15T01:40:33.163Z,97.22
2023-04-15T01:43:03.859Z,97.22
2023-04-15T01:45:31.910Z,97.17
2023-04-15T01:48:00.072Z,97.11
2023-04-15T01:50:28.307Z,97.13
2023-04-15T01:52:56.377Z,97.32
2023-04-15T01:55:24.452Z,97.21
2023-04-15T01:57:52.590Z,97.42
2023-04-15T02:00:22.371Z,97.60
2023-04-15T02:02:50.618Z,97.79
2023-04-15T02:05:18.893Z,97.65
2023-04-15T02:07:47.279Z,97.60
2023-04-15T02:10:16.735Z,97.34
2023-04-15T02:12:45.065Z,97.56
2023-04-15T02:15:13.211Z,97.45
2023-04-15T02:17:45.884Z,97.41
2023-04-15T02:20:14.519Z,97.76
2023-04-15T02:22:42.706Z,97.85
2023-04-15T02:25:11.632Z,97.92
2023-04-15T02:27:39.722Z,97.68
2023-04-15T02:30:09.359Z,97.64
2023-04-15T02:32:38.085Z,97.42
2023-04-15T02:35:09.412Z,97.59
2023-04-15T02:37:41.685Z,97.30
2023-04-15T02:40:12.093Z,97.76
2023-04-15T02:42:40.326Z,97.77
2023-04-15T02:45:09.506Z,98.06
2023-04-15T02:47:37.625Z,97.59
2023-04-15T02:50:12.474Z,98.12
2023-04-15T02:52:41.250Z,98.23
2023-04-15T02:55:09.983Z,98.49
2023-04-15T02:57:39.214Z,98.65
2023-04-15T03:00:09.743Z,98.45
2023-04-15T03:02:38.627Z,98.54
2023-04-15T03:05:12.669Z,98.62
2023-04-15T03:07:41.363Z,98.36
2023-04-15T03:10:11.101Z,98.33
2023-04-15T03:12:39.494Z,98.28
2023-04-15T03:15:08.855Z,98.28
2023-04-15T03:17:37.054Z,98.32
2023-04-15T03:20:06.264Z,98.64
2023-04-15T03:22:35.763Z,98.46
2023-04-15T03:25:03.921Z,98.69
2023-04-15T03:27:32.048Z,98.82
2023-04-15T03:30:00.135Z,98.90
2023-04-15T03:32:28.305Z,99.01
2023-04-15T03:34:56.371Z,98.83
2023-04-15T03:37:24.484Z,98.94
2023-04-15T03:39:53.947Z,99.03
2023-04-15T03:42:22.088Z,99.02
2023-04-15T03:44:50.190Z,99.01
2023-04-15T03:47:18.224Z,98.78
2023-04-15T03:49:46.333Z,99.18
2023-04-15T03:52:14.454Z,99.37
2023-04-15T03:54:42.544Z,99.50
2023-04-15T03:57:11.950Z,99.52
2023-04-15T03:59:40.046Z,99.40
2023-04-15T04:02:08.203Z,99.41
2023-04-15T04:04:36.355Z,99.33
2023-04-15T04:07:04.568Z,99.33
2023-04-15T04:09:32.650Z,99.36
2023-04-15T04:12:01.266Z,99.51
2023-04-15T04:14:30.826Z,99.20
2023-04-15T04:16:58.951Z,99.53
2023-04-15T04:19:27.059Z,99.56
2023-04-15T04:21:55.604Z,99.66
2023-04-15T04:24:23.726Z,99.49
2023-04-15T04:26:51.770Z,99.47
2023-04-15T04:29:19.877Z,99.59
2023-04-15T04:31:49.574Z,99.72
2023-04-15T04:34:17.696Z,99.59
2023-04-15T04:36:46.039Z,99.60
2023-04-15T04:39:14.127Z,99.77
2023-04-15T04:41:42.213Z,99.48
2023-04-15T04:44:10.307Z,99.96
2023-04-15T04:46:38.378Z,99.77
2023-04-15T04:49:07.839Z,99.97
2023-04-15T04:51:36.079Z,99.72
2023-04-15T04:54:04.296Z,99.63
2023-04-15T04:56:34.301Z,99.44
2023-04-15T04:59:02.757Z,99.63
2023-04-15T05:01:31.438Z,99.71
2023-04-15T05:03:59.698Z,99.88
2023-04-15T05:06:30.556Z,99.95
2023-04-15T05:08:58.663Z,100.00
2023-04-15T05:11:26.974Z,100.00
2023-04-15T05:13:55.042Z,100.00
2023-04-15T05:16:23.295Z,100.00
2023-04-15T05:18:51.887Z,100.00
2023-04-15T05:21:20.041Z,100.00
2023-04-15T05:23:49.517Z,100.00
2023-04-15T05:26:17.688Z,100.00
2023-04-15T05:28:46.201Z,99.99
2023-04-15T05:31:14.399Z,99.89
2023-04-15T05:33:42.517Z,99.61
2023-04-15T05:36:10.963Z,99.78
2023-04-15T05:38:39.056Z,99.23
2023-04-15T05:41:08.499Z,99.30
2023-04-15T05:43:36.636Z,99.27
2023-04-15T05:46:04.766Z,99.37
2023-04-15T05:48:32.897Z,99.27
2023-04-15T05:51:01.226Z,99.29
2023-04-15T05:53:29.302Z,99.36
2023-04-15T05:55:57.437Z,99.14
2023-04-15T05:58:27.103Z,99.08
2023-04-15T06:00:55.247Z,98.86
2023-04-15T06:03:23.789Z,99.08
2023-04-15T06:05:51.985Z,99.11
2023-04-15T06:08:20.609Z,99.02
2023-04-15T06:10:48.862Z,99.02
2023-04-15T06:13:17.197Z,99.03
2023-04-15T06:15:46.695Z,98.88
2023-04-15T06:18:14.746Z,98.88
2023-04-15T06:20:42.893Z,99.01
2023-04-15T06:23:11.347Z,99.11
2023-04-15T06:25:39.467Z,98.44
2023-04-15T06:28:07.826Z,98.71
2023-04-15T06:30:36.885Z,98.42
2023-04-15T06:33:06.552Z,98.29
2023-04-15T06:35:34.714Z,98.54
2023-04-15T06:38:02.802Z,97.96
2023-04-15T06:40:31.254Z,97.88
2023-04-15T06:42:59.666Z,98.12
2023-04-15T06:45:27.775Z,97.79
2023-04-15T06:47:56.002Z,98.14
2023-04-15T06:50:25.526Z,97.72
2023-04-15T06:52:53.705Z,97.65
2023-04-15T06:55:22.348Z,97.69
2023-04-15T06:57:50.415Z,97.47
2023-04-15T07:00:19.196Z,97.35
2023-04-15T07:02:47.916Z,97.24
2023-04-15T07:05:16.069Z,97.04
2023-04-15T07:07:46.090Z,96.73
2023-04-15T07:10:15.016Z,97.00
2023-04-15T07:12:43.123Z,97.15
2023-04-15T07:15:12.124Z,96.61
2023-04-15T07:17:40.260Z,96.66
2023-04-15T07:20:09.890Z,96.51
2023-04-15T07:22:37.996Z,96.16
2023-04-15T07:25:09.072Z,96.46
2023-04-15T07:27:37.154Z,96.34
2023-04-15T07:30:05.935Z,96.23
2023-04-15T07:32:34.227Z,96.44
2023-04-15T07:35:03.794Z,95.72
2023-04-15T07:37:32.232Z,96.16
2023-04-15T07:40:00.380Z,95.73
2023-04-15T07:42:30.569Z,95.56
2023-04-15T07:44:58.804Z,95.26
2023-04-15T07:47:27.181Z,95.53
2023-04-15T07:49:55.318Z,95.59
2023-04-15T07:52:23.426Z,95.56
2023-04-15T07:54:51.651Z,94.98
2023-04-15T07:57:19.943Z,95.53
2023-04-15T07:59:49.432Z,95.69
2023-04-15T08:02:18.412Z,95.35
2023-04-15T08:04:46.901Z,95.16
2023-04-15T08:07:15.044Z,95.32
2023-04-15T08:09:43.159Z,95.20
2023-04-15T08:12:13.365Z,95.16
2023-04-15T08:14:41.858Z,95.19
2023-04-15T08:17:11.278Z,94.77
2023-04-15T08:19:39.402Z,93.98
2023-04-15T08:22:15.627Z,93.75
2023-04-15T08:24:47.305Z,93.78
2023-04-15T08:27:15.393Z,93.14
2023-04-15T08:29:43.506Z,93.06
2023-04-15T08:32:13.023Z,93.04
2023-04-15T08:34:41.173Z,92.84
2023-04-15T08:37:10.804Z,92.76
2023-04-15T08:39:39.512Z,92.38
2023-04-15T08:42:12.654Z,92.24
2023-04-15T08:44:41.254Z,92.44
2023-04-15T08:47:10.456Z,92.39
2023-04-15T08:49:42.030Z,92.44
2023-04-15T08:52:10.431Z,92.68
2023-04-15T08:54:38.796Z,92.84
2023-04-15T08:57:07.972Z,92.45
2023-04-15T08:59:36.428Z,91.87
2023-04-15T09:02:04.850Z,91.28
2023-04-15T09:04:33.150Z,90.79
2023-04-15T09:07:02.748Z,90.86
2023-04-15T09:09:31.320Z,90.55
2023-04-15T09:11:59.405Z,90.21
2023-04-15T09:14:32.141Z,89.85
2023-04-15T09:17:01.845Z,89.90
2023-04-15T09:19:30.643Z,90.35
2023-04-15T09:22:00.474Z,90.01
2023-04-15T09:24:38.155Z,89.78
2023-04-15T09:27:06.416Z,89.38
2023-04-15T09:29:34.726Z,88.92
2023-04-15T09:32:13.256Z,88.59
2023-04-15T09:34:41.389Z,88.25
2023-04-15T09:37:10.938Z,87.54
2023-04-15T09:39:51.029Z,86.85
2023-04-15T09:42:24.312Z,86.59
2023-04-15T09:44:53.260Z,85.13
2023-04-15T09:47:31.498Z,84.88
2023-04-15T09:50:01.027Z,84.70
2023-04-15T09:52:29.421Z,83.63
2023-04-15T09:55:00.199Z,82.38
2023-04-15T09:57:35.239Z,81.25
2023-04-15T10:00:03.716Z,80.63
2023-04-15T10:02:32.737Z,79.90
2023-04-15T10:05:01.200Z,79.03
2023-04-15T10:07:29.668Z,78.89
2023-04-15T10:10:00.953Z,77.81
2023-04-15T10:12:29.661Z,77.12
2023-04-15T10:14:59.975Z,76.28
2023-04-15T10:17:31.621Z,75.97
2023-04-15T10:20:01.810Z,74.92
2023-04-15T10:22:31.480Z,75.28
2023-04-15T10:25:01.815Z,75.56
2023-04-15T10:27:29.988Z,74.85
2023-04-15T10:29:58.287Z,74.44
2023-04-15T10:32:27.149Z,74.40
2023-04-15T10:34:55.712Z,74.15
2023-04-15T10:37:34.170Z,72.91
2023-04-15T10:40:18.829Z,71.57
2023-04-15T10:42:47.294Z,71.52
2023-04-15T10:45:18.006Z,72.04
2023-04-15T10:47:46.389Z,71.06
2023-04-15T10:50:14.534Z,70.84
2023-04-15T10:52:42.826Z,70.76
2023-04-15T10:55:16.477Z,70.77
2023-04-15T10:57:46.284Z,71.20
2023-04-15T11:00:15.597Z,71.38
2023-04-15T11:02:46.513Z,70.86
2023-04-15T11:05:15.560Z,70.71
2023-04-15T11:07:50.549Z,70.56
2023-04-15T11:10:56.679Z,70.04
2023-04-15T11:13:29.451Z,69.04
2023-04-15T11:16:01.421Z,69.35
2023-04-15T11:18:34.416Z,69.98
2023-04-15T11:21:05.291Z,68.82
2023-04-15T11:23:35.808Z,67.89
2023-04-15T11:26:09.294Z,67.17
2023-04-15T11:28:38.920Z,65.97
2023-04-15T11:31:11.892Z,65.54
2023-04-15T11:33:47.077Z,65.87
2023-04-15T11:36:15.220Z,64.77
2023-04-15T11:38:48.412Z,64.75
2023-04-15T11:41:21.313Z,65.97
2023-04-15T11:43:49.557Z,66.24
2023-04-15T11:46:18.044Z,64.94
2023-04-15T11:48:47.519Z,64.44
2023-04-15T11:51:15.747Z,63.53
2023-04-15T11:53:46.094Z,64.08
2023-04-15T11:56:21.090Z,64.33
2023-04-15T11:58:50.906Z,65.03
2023-04-15T12:01:19.232Z,65.93
2023-04-15T12:03:48.402Z,66.05
2023-04-15T12:06:19.286Z,66.23
2023-04-15T12:09:08.633Z,65.54
2023-04-15T12:11:48.467Z,64.17
2023-04-15T12:14:23.655Z,63.73
2023-04-15T12:16:54.023Z,63.48
2023-04-15T12:19:26.504Z,63.49
2023-04-15T12:22:00.494Z,63.56
2023-04-15T12:24:29.429Z,62.92
2023-04-15T12:26:59.392Z,63.09
2023-04-15T12:29:29.274Z,63.45
2023-04-15T12:31:58.648Z,64.20
2023-04-15T12:34:32.013Z,65.19
2023-04-15T12:37:01.309Z,65.73
2023-04-15T12:39:31.307Z,65.87
2023-04-15T12:42:01.747Z,66.33
2023-04-15T12:44:30.034Z,66.18
2023-04-15T12:46:58.394Z,66.62
2023-04-15T12:49:27.375Z,66.89
2023-04-15T12:51:57.005Z,66.78
2023-04-15T12:54:25.265Z,66.21
2023-04-15T12:56:54.289Z,66.36
2023-04-15T12:59:24.341Z,66.87
2023-04-15T13:01:53.663Z,66.63
2023-04-15T13:04:22.720Z,67.32
2023-04-15T13:06:51.406Z,67.77
2023-04-15T13:09:19.665Z,67.00
2023-04-15T13:11:47.903Z,66.74
2023-04-15T13:14:16.058Z,67.25
2023-04-15T13:16:45.775Z,66.64
2023-04-15T13:19:14.348Z,65.80
2023-04-15T13:21:42.524Z,65.05
2023-04-15T13:24:10.734Z,63.92
2023-04-15T13:26:38.919Z,63.78
2023-04-15T13:29:07.344Z,63.46
2023-04-15T13:31:35.641Z,63.55
2023-04-15T13:34:05.719Z,64.14
2023-04-15T13:36:34.170Z,63.15
2023-04-15T13:39:02.504Z,63.94
2023-04-15T13:41:30.722Z,65.04
2023-04-15T13:43:58.922Z,64.15
2023-04-15T13:46:27.198Z,64.39
2023-04-15T13:48:55.364Z,64.11
2023-04-15T13:51:25.053Z,64.39
2023-04-15T13:53:53.224Z,64.21
2023-04-15T13:56:21.663Z,63.50
2023-04-15T13:58:49.898Z,64.76
2023-04-15T14:01:18.110Z,64.79
2023-04-15T14:03:46.604Z,65.49
2023-04-15T14:06:14.878Z,65.80
2023-04-15T14:08:44.469Z,65.48
2023-04-15T14:11:12.864Z,64.68
2023-04-15T14:13:41.082Z,64.12
2023-04-15T14:16:09.366Z,64.31
2023-04-15T14:18:38.520Z,64.51
2023-04-15T14:21:07.409Z,65.28
2023-04-15T14:23:35.651Z,66.54
2023-04-15T14:26:05.604Z,67.20
2023-04-15T14:28:33.822Z,67.56
2023-04-15T14:31:02.106Z,67.33
2023-04-15T14:33:30.545Z,67.76
2023-04-15T14:35:58.841Z,68.07
2023-04-15T14:38:27.073Z,67.96
2023-04-15T14:40:55.210Z,67.53
2023-04-15T14:43:24.916Z,67.86
2023-04-15T14:45:53.131Z,68.05
2023-04-15T14:48:21.359Z,67.95
2023-04-15T14:50:49.630Z,68.39
2023-04-15T14:53:17.995Z,68.19
2023-04-15T14:55:46.277Z,68.58
2023-04-15T14:58:14.677Z,68.66
2023-04-15T15:00:44.857Z,68.64
2023-04-15T15:03:13.978Z,68.68
2023-04-15T15:05:43.131Z,69.16
2023-04-15T15:08:11.607Z,69.53
2023-04-15T15:10:48.418Z,69.21
2023-04-15T15:13:18.731Z,68.69
2023-04-15T15:15:49.525Z,69.06
2023-04-15T15:18:19.097Z,69.37
2023-04-15T15:20:47.796Z,69.28
2023-04-15T15:23:16.120Z,69.56
2023-04-15T15:25:44.971Z,69.85
2023-04-15T15:28:13.296Z,69.37
2023-04-15T15:30:41.523Z,69.65
2023-04-15T15:33:11.119Z,70.23
2023-04-15T15:35:40.144Z,70.27
2023-04-15T15:38:08.744Z,70.29
2023-04-15T15:40:36.916Z,70.89
2023-04-15T15:43:05.486Z,71.19
2023-04-15T15:45:34.359Z,71.64
2023-04-15T15:48:02.916Z,71.51
2023-04-15T15:50:32.930Z,72.00
2023-04-15T15:53:01.137Z,72.07
2023-04-15T15:55:29.307Z,71.81
2023-04-15T15:57:57.495Z,72.46
2023-04-15T16:00:25.902Z,72.44
2023-04-15T16:03:06.601Z,72.46
2023-04-15T16:05:36.671Z,72.45
2023-04-15T16:08:05.042Z,72.43
2023-04-15T16:10:33.280Z,72.12
2023-04-15T16:13:02.038Z,72.23
2023-04-15T16:15:30.374Z,71.80
2023-04-15T16:17:58.694Z,71.79
2023-04-15T16:20:28.371Z,71.70
2023-04-15T16:22:59.681Z,71.75
2023-04-15T16:25:27.906Z,72.47
2023-04-15T16:28:05.601Z,72.56
2023-04-15T16:30:40.586Z,72.77
2023-04-15T16:33:09.670Z,72.97
2023-04-15T16:35:37.845Z,73.02
2023-04-15T16:38:07.600Z,72.92
2023-04-15T16:40:35.920Z,73.08
2023-04-15T16:43:04.425Z,73.50
2023-04-15T16:45:32.712Z,73.54
2023-04-15T16:48:00.932Z,73.29
2023-04-15T16:50:29.465Z,73.37
2023-04-15T16:52:57.766Z,72.82
2023-04-15T16:55:27.991Z,72.64
2023-04-15T16:58:02.670Z,73.08
2023-04-15T17:00:32.193Z,73.54
2023-04-15T17:03:01.256Z,73.48
2023-04-15T17:05:30.705Z,73.54
2023-04-15T17:07:59.358Z,73.36
2023-04-15T17:10:29.238Z,73.29
2023-04-15T17:12:58.312Z,73.51
2023-04-15T17:15:27.312Z,73.58
2023-04-15T17:17:55.927Z,73.77
2023-04-15T17:20:24.193Z,73.89
2023-04-15T17:22:52.501Z,74.06
2023-04-15T17:25:20.940Z,73.92
2023-04-15T17:27:50.549Z,74.48
2023-04-15T17:30:18.985Z,74.64
2023-04-15T17:32:47.393Z,74.56
2023-04-15T17:35:15.742Z,74.85
2023-04-15T17:37:43.999Z,74.78
2023-04-15T17:40:13.874Z,74.73
2023-04-15T17:42:42.522Z,75.09
2023-04-15T17:45:12.880Z,74.97
2023-04-15T17:47:41.429Z,74.83
2023-04-15T17:50:10.190Z,75.03
2023-04-15T17:52:38.398Z,74.77
2023-04-15T17:55:07.937Z,74.51
2023-04-15T17:57:36.303Z,74.72
2023-04-15T18:00:04.795Z,74.87
2023-04-15T18:02:36.840Z,75.13
2023-04-15T18:05:06.201Z,74.85
2023-04-15T18:07:34.483Z,75.16
2023-04-15T18:10:02.676Z,74.78
2023-04-15T18:12:30.936Z,75.21
2023-04-15T18:14:59.396Z,75.49
2023-04-15T18:17:28.516Z,75.54
2023-04-15T18:19:58.183Z,75.48
2023-04-15T18:22:26.500Z,75.44
2023-04-15T18:24:54.679Z,75.89
2023-04-15T18:27:22.932Z,76.09
2023-04-15T18:29:51.842Z,76.27
2023-04-15T18:32:20.109Z,76.65
2023-04-15T18:34:48.378Z,76.86
2023-04-15T18:37:18.068Z,77.50
2023-04-15T18:39:46.340Z,77.42
2023-04-15T18:42:17.226Z,77.72
2023-04-15T18:44:45.431Z,77.85
2023-04-15T18:47:13.683Z,77.67
2023-04-15T18:49:42.179Z,77.82
2023-04-15T18:52:10.888Z,77.46
2023-04-15T18:54:40.833Z,77.67
2023-04-15T18:57:09.147Z,77.76
2023-04-15T18:59:37.545Z,77.42
2023-04-15T19:02:07.549Z,77.44
2023-04-15T19:04:35.986Z,77.10
2023-04-15T19:07:04.734Z,77.40
2023-04-15T19:09:34.006Z,77.42
2023-04-15T19:12:03.727Z,77.33
2023-04-15T19:14:31.921Z,77.51
2023-04-15T19:17:00.259Z,77.49
2023-04-15T19:19:29.427Z,77.62
2023-04-15T19:21:57.806Z,77.79
2023-04-15T19:24:25.999Z,77.34
2023-04-15T19:26:54.237Z,77.37
2023-04-15T19:29:24.331Z,77.09
2023-04-15T19:31:53.022Z,77.27
2023-04-15T19:34:22.503Z,76.94
2023-04-15T19:36:50.956Z,77.17
2023-04-15T19:39:19.711Z,77.43
2023-04-15T19:41:48.192Z,77.40
2023-04-15T19:44:16.500Z,77.47
2023-04-15T19:46:49.913Z,77.43
2023-04-15T19:49:19.111Z,77.53
2023-04-15T19:51:49.054Z,77.78
2023-04-15T19:54:17.637Z,77.67
2023-04-15T19:56:45.982Z,77.85
2023-04-15T19:59:14.262Z,77.84
2023-04-15T20:01:42.484Z,77.93
2023-04-15T20:04:12.830Z,78.09
2023-04-15T20:06:41.047Z,78.10
2023-04-15T20:09:11.169Z,78.35
2023-04-15T20:12:46.817Z,78.13
2023-04-15T20:14:28.185Z,78.07
2023-04-15T20:16:56.533Z,78.42
2023-04-15T20:19:29.687Z,78.31
2023-04-15T20:21:58.048Z,78.31
2023-04-15T20:24:26.503Z,78.36
2023-04-15T20:26:54.720Z,78.78
2023-04-15T20:29:23.135Z,78.51
2023-04-15T20:31:51.412Z,78.67
2023-04-15T20:34:19.758Z,78.83
2023-04-15T20:36:49.462Z,78.93
2023-04-15T20:39:17.841Z,79.17
2023-04-15T20:41:46.096Z,79.20
2023-04-15T20:44:14.309Z,78.92
2023-04-15T20:46:42.618Z,79.28
2023-04-15T20:49:10.722Z,79.13
2023-04-15T20:51:38.812Z,79.17
2023-04-15T20:54:08.467Z,79.35
2023-04-15T20:56:36.615Z,79.36
2023-04-15T20:59:05.019Z,79.50
2023-04-15T21:01:33.571Z,79.60
2023-04-15T21:04:01.810Z,79.54
2023-04-15T21:06:29.988Z,79.90
2023-04-15T21:08:58.054Z,79.67
2023-04-15T21:11:46.358Z,79.62
2023-04-15T21:14:15.581Z,79.49
2023-04-15T21:16:44.038Z,79.54
2023-04-15T21:19:12.266Z,79.37
2023-04-15T21:21:40.372Z,79.68
2023-04-15T21:24:08.685Z,79.39
2023-04-15T21:26:38.197Z,79.43
2023-04-15T21:29:08.664Z,79.32
2023-04-15T21:31:38.775Z,79.21
2023-04-15T21:34:06.955Z,79.21
2023-04-15T21:36:35.155Z,79.20
2023-04-15T21:39:03.461Z,79.21
2023-04-15T21:41:32.681Z,79.38
2023-04-15T21:44:02.171Z,79.39
2023-04-15T21:46:35.000Z,79.24
2023-04-15T21:49:04.522Z,79.04
2023-04-15T21:51:32.884Z,79.20
2023-04-15T21:54:01.104Z,78.99
2023-04-15T21:56:29.378Z,78.80
2023-04-15T21:58:58.437Z,78.92
2023-04-15T22:01:28.157Z,79.15
2023-04-15T22:03:56.466Z,79.08
2023-04-15T22:06:24.700Z,79.40
2023-04-15T22:09:11.381Z,79.31
2023-04-15T22:11:41.362Z,79.15
2023-04-15T22:14:09.448Z,79.35
2023-04-15T22:16:38.987Z,79.39
2023-04-15T22:19:07.370Z,79.40
2023-04-15T22:21:35.809Z,79.68
2023-04-15T22:24:31.894Z,79.64
2023-04-15T22:26:52.014Z,79.61
2023-04-15T22:29:20.102Z,79.83
2023-04-15T22:31:49.588Z,79.88
2023-04-15T22:34:21.335Z,80.13
2023-04-15T22:36:49.901Z,80.07
2023-04-15T22:39:18.659Z,80.24
2023-04-15T22:41:47.279Z,80.45
2023-04-15T22:44:15.434Z,80.65
2023-04-15T22:46:43.853Z,80.76
2023-04-15T22:49:13.364Z,80.66
2023-04-15T22:51:41.438Z,80.90
2023-04-15T22:54:09.541Z,81.01
2023-04-15T22:56:37.634Z,80.99
2023-04-15T22:59:05.752Z,81.28
2023-04-15T23:01:34.065Z,81.40
2023-04-15T23:04:09.830Z,81.60
2023-04-15T23:06:52.406Z,81.68
2023-04-15T23:09:20.976Z,81.90
2023-04-15T23:11:49.102Z,81.69
2023-04-15T23:14:17.197Z,81.83
2023-04-15T23:16:45.611Z,82.12
2023-04-15T23:19:13.708Z,81.96
2023-04-15T23:21:41.900Z,81.93
2023-04-15T23:24:12.460Z,82.08
2023-04-15T23:26:40.813Z,82.13
2023-04-15T23:29:09.294Z,82.04
2023-04-15T23:31:37.705Z,82.16
2023-04-15T23:34:06.449Z,82.14
2023-04-15T23:36:34.622Z,81.80
2023-04-15T23:39:02.708Z,81.91
2023-04-15T23:41:32.195Z,81.77
2023-04-15T23:44:00.358Z,81.83
2023-04-15T23:46:28.540Z,81.66
2023-04-15T23:48:56.701Z,81.64
2023-04-15T23:51:24.787Z,81.85
2023-04-15T23:53:53.134Z,81.62
2023-04-15T23:56:21.489Z,81.31
2023-04-15T23:58:50.926Z,81.64
